Time;durP1;ratioP1;P1;durP2;ratioP2;P2;SDS_P1;SDS_P2;PMS_P1;PMS_P2;Temp;Humidity;BMP_temperature;BMP_pressure;BME280_temperature;BME280_humidity;BME280_pressure;Samples;Min_cycle;Max_cycle;Signal;HPM_P1;HPM_P2
2022/04/27 00:00:52;;;;;;;7.97;6.25;;;;;;;;;;4930782;29;20126;-65
2022/04/27 00:03:20;;;;;;;7.70;5.95;;;;;;;;;;4936329;29;20496;-64
2022/04/27 00:05:48;;;;;;;8.20;6.20;;;;;;;;;;4918209;29;20127;-64
2022/04/27 00:08:17;;;;;;;9.68;7.63;;;;;;;;;;4918209;29;20138;-64
2022/04/27 00:10:45;;;;;;;8.98;7.03;;;;;;;;;;4918554;29;20044;-65
2022/04/27 00:13:16;;;;;;;8.82;6.38;;;;;;;;;;4918137;29;20052;-65
2022/04/27 00:15:44;;;;;;;8.02;6.93;;;;;;;;;;4918501;29;20048;-64
2022/04/27 00:18:13;;;;;;;7.90;5.95;;;;;;;;;;4917994;29;20083;-64
2022/04/27 00:20:42;;;;;;;6.80;6.10;;;;;;;;;;4918233;29;20050;-64
2022/04/27 00:23:11;;;;;;;7.57;6.30;;;;;;;;;;4918196;29;20131;-65
2022/04/27 00:25:40;;;;;;;5.95;5.35;;;;;;;;;;4918065;29;20052;-64
2022/04/27 00:28:08;;;;;;;8.70;5.40;;;;;;;;;;4917730;29;20103;-65
2022/04/27 00:30:36;;;;;;;7.15;4.65;;;;;;;;;;4917963;29;20048;-64
2022/04/27 00:33:06;;;;;;;9.55;5.43;;;;;;;;;;4918235;29;20048;-64
2022/04/27 00:35:34;;;;;;;6.30;5.68;;;;;;;;;;4917602;29;20044;-65
2022/04/27 00:38:03;;;;;;;5.07;4.57;;;;;;;;;;4917656;29;20508;-64
2022/04/27 00:40:31;;;;;;;19.20;5.72;;;;;;;;;;4917590;29;20060;-64
2022/04/27 00:42:59;;;;;;;8.40;4.70;;;;;;;;;;4916359;29;20056;-64
2022/04/27 00:45:28;;;;;;;5.68;4.15;;;;;;;;;;4917578;29;20461;-65
2022/04/27 00:47:57;;;;;;;5.78;3.83;;;;;;;;;;4917810;29;20044;-65
2022/04/27 00:50:25;;;;;;;5.35;4.25;;;;;;;;;;4918097;29;20044;-65
2022/04/27 00:52:56;;;;;;;5.57;4.20;;;;;;;;;;4917470;29;20063;-65
2022/04/27 00:55:24;;;;;;;6.60;5.00;;;;;;;;;;4917351;29;20055;-65
2022/04/27 00:57:52;;;;;;;7.05;4.22;;;;;;;;;;4917260;29;20272;-65
2022/04/27 01:00:20;;;;;;;6.45;4.53;;;;;;;;;;4913714;29;20052;-65
2022/04/27 01:02:49;;;;;;;8.60;4.68;;;;;;;;;;4917364;29;20083;-65
2022/04/27 01:05:18;;;;;;;5.03;4.53;;;;;;;;;;4929651;29;20504;-65
2022/04/27 01:07:49;;;;;;;8.23;4.57;;;;;;;;;;4917665;29;20504;-64
2022/04/27 01:10:17;;;;;;;5.85;4.22;;;;;;;;;;4933030;29;20103;-65
2022/04/27 01:12:45;;;;;;;13.52;4.28;;;;;;;;;;4934465;29;20047;-64
2022/04/27 01:15:29;;;;;;;4.07;3.67;;;;;;;;;;4901655;29;20143;-65
2022/04/27 01:17:58;;;;;;;5.10;4.60;;;;;;;;;;4917775;29;20058;-66
2022/04/27 01:20:32;;;;;;;7.18;4.95;;;;;;;;;;4916064;29;20052;-66
2022/04/27 01:23:00;;;;;;;4.05;3.70;;;;;;;;;;4944938;29;20064;-66
2022/04/27 01:25:45;;;;;;;8.88;4.50;;;;;;;;;;4933732;29;20110;-65
2022/04/27 01:28:14;;;;;;;4.63;4.10;;;;;;;;;;4935425;29;20146;-65
2022/04/27 01:30:44;;;;;;;4.50;4.10;;;;;;;;;;4933988;29;20414;-65
2022/04/27 01:33:13;;;;;;;8.20;3.58;;;;;;;;;;4934275;29;20534;-65
2022/04/27 01:35:41;;;;;;;4.20;3.80;;;;;;;;;;4935191;29;20134;-66
2022/04/27 01:38:10;;;;;;;6.07;4.43;;;;;;;;;;4917198;29;20468;-66
2022/04/27 01:40:38;;;;;;;6.80;3.67;;;;;;;;;;4933225;29;20082;-66
2022/04/27 01:43:07;;;;;;;8.10;4.43;;;;;;;;;;4916552;29;20411;-66
2022/04/27 01:45:36;;;;;;;8.85;4.32;;;;;;;;;;4917336;29;20058;-66
2022/04/27 01:48:07;;;;;;;5.00;4.15;;;;;;;;;;4917045;29;20055;-66
2022/04/27 01:50:36;;;;;;;4.57;3.70;;;;;;;;;;4916006;29;20050;-65
2022/04/27 01:55:52;;;;;;;4.03;3.60;;;;;;;;;;4917114;29;20480;-65
2022/04/27 01:58:24;;;;;;;5.20;3.60;;;;;;;;;;4946594;29;20067;-66
2022/04/27 02:00:54;;;;;;;6.30;4.00;;;;;;;;;;4917977;29;20048;-65
2022/04/27 02:03:23;;;;;;;4.22;3.75;;;;;;;;;;4917528;29;20052;-65
2022/04/27 02:05:53;;;;;;;4.40;3.67;;;;;;;;;;4931420;29;20044;-65
2022/04/27 02:08:23;;;;;;;9.60;3.90;;;;;;;;;;4936293;29;20091;-65
2022/04/27 02:10:52;;;;;;;4.90;4.22;;;;;;;;;;4937701;29;20055;-66
2022/04/27 02:13:21;;;;;;;5.68;4.88;;;;;;;;;;4937510;29;20056;-65
2022/04/27 02:15:51;;;;;;;7.20;4.50;;;;;;;;;;4919721;29;20044;-65
2022/04/27 02:18:28;;;;;;;7.50;6.10;;;;;;;;;;4932057;29;20468;-65
2022/04/27 02:21:01;;;;;;;6.90;5.00;;;;;;;;;;4938705;29;20040;-64
2022/04/27 02:23:31;;;;;;;5.13;4.40;;;;;;;;;;4937126;29;20044;-64
2022/04/27 02:26:02;;;;;;;5.45;4.07;;;;;;;;;;4923317;29;20052;-66
2022/04/27 02:28:30;;;;;;;5.55;4.15;;;;;;;;;;4947910;29;20056;-65
2022/04/27 02:30:59;;;;;;;4.45;4.05;;;;;;;;;;4922752;29;20056;-65
2022/04/27 02:33:32;;;;;;;8.15;4.65;;;;;;;;;;4918972;29;20064;-65
2022/04/27 02:36:00;;;;;;;4.47;4.00;;;;;;;;;;4919947;29;20143;-64
2022/04/27 02:38:29;;;;;;;6.40;4.93;;;;;;;;;;4918921;29;20095;-64
2022/04/27 02:41:02;;;;;;;5.65;5.07;;;;;;;;;;4947159;29;20436;-64
2022/04/27 02:43:31;;;;;;;5.30;4.55;;;;;;;;;;4935258;29;20399;-64
2022/04/27 02:46:02;;;;;;;4.72;4.15;;;;;;;;;;4937239;29;20071;-64
2022/04/27 02:48:32;;;;;;;6.13;4.22;;;;;;;;;;4919576;29;20150;-66
2022/04/27 02:53:48;;;;;;;4.68;4.00;;;;;;;;;;4923394;29;20493;-65
2022/04/27 02:56:17;;;;;;;8.35;3.80;;;;;;;;;;4946138;29;20063;-65
2022/04/27 02:58:45;;;;;;;5.70;3.42;;;;;;;;;;4937893;29;20050;-65
2022/04/27 03:01:14;;;;;;;4.63;3.58;;;;;;;;;;4922559;29;20091;-64
2022/04/27 03:03:42;;;;;;;5.30;4.25;;;;;;;;;;4947149;29;20182;-65
2022/04/27 03:06:12;;;;;;;7.03;4.18;;;;;;;;;;4936755;29;20063;-65
2022/04/27 03:08:40;;;;;;;3.80;3.38;;;;;;;;;;4921600;29;20064;-65
2022/04/27 03:11:09;;;;;;;4.18;3.78;;;;;;;;;;4918401;29;20048;-66
2022/04/27 03:13:56;;;;;;;4.30;3.65;;;;;;;;;;4918239;29;20139;-64
2022/04/27 03:16:24;;;;;;;8.18;4.20;;;;;;;;;;4917253;29;20407;-65
2022/04/27 03:18:52;;;;;;;4.75;4.10;;;;;;;;;;4918094;29;20162;-65
2022/04/27 03:21:21;;;;;;;5.03;4.40;;;;;;;;;;4917833;29;20488;-65
2022/04/27 03:23:51;;;;;;;6.57;4.63;;;;;;;;;;4918220;29;20056;-65
2022/04/27 03:26:21;;;;;;;7.28;5.15;;;;;;;;;;4929911;29;20048;-65
2022/04/27 03:28:49;;;;;;;5.93;3.55;;;;;;;;;;4919250;29;20060;-66
2022/04/27 03:31:19;;;;;;;5.28;4.13;;;;;;;;;;4923367;29;20088;-65
2022/04/27 03:33:51;;;;;;;4.93;4.43;;;;;;;;;;4918065;29;20151;-65
2022/04/27 03:36:20;;;;;;;8.07;4.80;;;;;;;;;;4918969;29;20062;-65
2022/04/27 03:38:49;;;;;;;6.88;4.63;;;;;;;;;;4919035;29;20116;-66
2022/04/27 03:41:20;;;;;;;5.80;4.53;;;;;;;;;;4918661;29;20500;-65
2022/04/27 03:43:49;;;;;;;7.35;5.10;;;;;;;;;;4917810;29;20048;-66
2022/04/27 03:46:20;;;;;;;11.38;4.97;;;;;;;;;;4941962;29;20523;-65
2022/04/27 03:49:08;;;;;;;6.35;5.18;;;;;;;;;;4947354;29;20040;-65
2022/04/27 03:51:37;;;;;;;13.05;5.00;;;;;;;;;;4936649;29;20056;-66
2022/04/27 03:54:06;;;;;;;7.38;5.18;;;;;;;;;;4935415;29;20084;-65
2022/04/27 03:56:34;;;;;;;11.20;5.75;;;;;;;;;;4917759;29;20103;-66
2022/04/27 03:59:01;;;;;;;15.00;5.07;;;;;;;;;;4932369;29;20056;-65
2022/04/27 04:01:31;;;;;;;7.45;5.15;;;;;;;;;;4917395;29;20147;-65
2022/04/27 04:04:00;;;;;;;12.07;5.95;;;;;;;;;;4916843;29;20401;-66
2022/04/27 04:06:30;;;;;;;9.43;7.07;;;;;;;;;;4926744;29;20044;-66
2022/04/27 04:08:58;;;;;;;8.68;5.80;;;;;;;;;;4917159;29;20515;-66
2022/04/27 04:11:26;;;;;;;12.00;6.10;;;;;;;;;;4917407;29;20052;-65
2022/04/27 04:14:06;;;;;;;6.43;5.50;;;;;;;;;;4946616;29;20051;-66
2022/04/27 04:16:44;;;;;;;6.65;5.72;;;;;;;;;;4935291;29;20055;-65
2022/04/27 04:19:28;;;;;;;7.32;6.55;;;;;;;;;;4925182;29;20497;-65
2022/04/27 04:22:15;;;;;;;6.95;4.47;;;;;;;;;;4932108;29;20537;-64
2022/04/27 04:30:27;;;;;;;6.30;5.05;;;;;;;;;;4921336;29;20067;-64
2022/04/27 04:33:16;;;;;;;6.45;4.93;;;;;;;;;;4906129;29;20144;-65
2022/04/27 04:35:52;;;;;;;10.85;5.47;;;;;;;;;;4922114;29;20056;-64
2022/04/27 04:38:20;;;;;;;6.45;4.88;;;;;;;;;;4917820;29;20051;-64
2022/04/27 04:40:53;;;;;;;6.65;4.45;;;;;;;;;;4938784;29;20056;-64
2022/04/27 04:43:25;;;;;;;9.20;3.45;;;;;;;;;;4928037;29;20139;-65
2022/04/27 04:45:54;;;;;;;9.00;5.70;;;;;;;;;;4934285;29;20051;-64
2022/04/27 04:48:51;;;;;;;6.90;5.68;;;;;;;;;;4938641;29;20114;-64
2022/04/27 04:51:37;;;;;;;7.95;5.43;;;;;;;;;;4924091;29;20529;-65
2022/04/27 04:54:26;;;;;;;7.50;5.40;;;;;;;;;;4919812;29;20079;-64
2022/04/27 04:57:09;;;;;;;7.50;5.35;;;;;;;;;;4923876;29;20048;-64
2022/04/27 04:59:58;;;;;;;7.65;5.10;;;;;;;;;;4924122;29;20511;-64
2022/04/27 05:02:55;;;;;;;8.05;5.80;;;;;;;;;;4924299;29;20059;-65
2022/04/27 05:05:51;;;;;;;8.18;6.32;;;;;;;;;;4929454;29;20074;-65
2022/04/27 05:08:39;;;;;;;8.35;6.45;;;;;;;;;;4926416;29;20103;-65
2022/04/27 05:11:27;;;;;;;9.18;6.47;;;;;;;;;;4929058;29;20107;-66
2022/04/27 05:14:12;;;;;;;15.57;6.95;;;;;;;;;;4930081;29;20040;-66
2022/04/27 05:16:59;;;;;;;14.18;8.73;;;;;;;;;;4932131;29;20043;-64
2022/04/27 05:19:45;;;;;;;12.57;6.95;;;;;;;;;;4922113;29;20044;-63
2022/04/27 05:22:38;;;;;;;12.02;8.45;;;;;;;;;;4913204;29;20444;-64
2022/04/27 05:25:36;;;;;;;12.77;8.68;;;;;;;;;;4918198;29;20067;-65
2022/04/27 05:28:25;;;;;;;9.35;7.93;;;;;;;;;;4921915;29;20052;-64
2022/04/27 05:34:10;;;;;;;18.52;9.80;;;;;;;;;;4929183;29;20134;-64
2022/04/27 05:36:46;;;;;;;12.23;9.10;;;;;;;;;;4923915;29;20143;-65
2022/04/27 05:39:15;;;;;;;18.20;10.02;;;;;;;;;;4917535;29;20086;-66
2022/04/27 05:42:06;;;;;;;9.45;8.45;;;;;;;;;;4920389;29;20056;-64
2022/04/27 05:44:53;;;;;;;13.43;7.53;;;;;;;;;;4926273;29;20155;-64
2022/04/27 05:47:41;;;;;;;8.05;7.25;;;;;;;;;;4923434;29;20535;-64
2022/04/27 05:50:35;;;;;;;8.60;7.13;;;;;;;;;;4920051;29;20179;-65
2022/04/27 05:53:36;;;;;;;15.40;9.18;;;;;;;;;;4910314;29;20067;-65
2022/04/27 05:56:29;;;;;;;20.17;9.90;;;;;;;;;;4865172;29;20064;-63
2022/04/27 05:59:11;;;;;;;11.45;9.20;;;;;;;;;;4932541;29;20134;-66
2022/04/27 06:01:58;;;;;;;27.25;9.32;;;;;;;;;;4929307;29;20112;-64
2022/04/27 06:04:28;;;;;;;11.82;9.05;;;;;;;;;;4930854;29;20110;-64
2022/04/27 06:06:58;;;;;;;14.85;10.45;;;;;;;;;;4932887;29;20055;-63
2022/04/27 06:09:26;;;;;;;12.85;10.25;;;;;;;;;;4934659;29;20043;-64
2022/04/27 06:12:10;;;;;;;24.30;10.27;;;;;;;;;;4931363;29;20047;-63
2022/04/27 06:14:38;;;;;;;19.60;9.90;;;;;;;;;;4932749;29;20457;-62
2022/04/27 06:17:25;;;;;;;21.77;9.85;;;;;;;;;;4931394;29;20047;-62
2022/04/27 06:19:53;;;;;;;17.67;12.10;;;;;;;;;;4929106;29;20078;-62
2022/04/27 06:22:21;;;;;;;17.30;10.75;;;;;;;;;;4926921;29;20460;-62
2022/04/27 06:24:49;;;;;;;17.17;11.68;;;;;;;;;;4933760;29;20056;-62
2022/04/27 06:27:37;;;;;;;14.02;12.25;;;;;;;;;;4929092;29;20051;-62
2022/04/27 06:30:06;;;;;;;19.52;14.15;;;;;;;;;;4930863;29;20052;-63
2022/04/27 06:32:40;;;;;;;20.10;15.10;;;;;;;;;;4932478;29;20083;-64
2022/04/27 06:35:12;;;;;;;23.52;16.00;;;;;;;;;;4933501;29;20055;-65
2022/04/27 06:37:45;;;;;;;16.52;12.45;;;;;;;;;;4931309;29;20058;-65
2022/04/27 06:40:14;;;;;;;16.98;11.35;;;;;;;;;;4932111;29;20059;-66
2022/04/27 06:42:43;;;;;;;12.95;9.35;;;;;;;;;;4934075;29;20502;-66
2022/04/27 06:45:45;;;;;;;17.48;11.30;;;;;;;;;;4944432;29;20091;-65
2022/04/27 06:48:32;;;;;;;18.75;11.43;;;;;;;;;;4934026;29;20083;-65
2022/04/27 06:51:19;;;;;;;20.23;11.00;;;;;;;;;;4931594;29;20059;-65
2022/04/27 06:54:06;;;;;;;13.57;11.38;;;;;;;;;;4927372;29;20059;-65
2022/04/27 06:56:53;;;;;;;21.58;12.18;;;;;;;;;;4932729;29;20047;-65
2022/04/27 06:59:39;;;;;;;16.20;10.65;;;;;;;;;;4934214;29;20062;-66
2022/04/27 07:02:10;;;;;;;14.98;11.07;;;;;;;;;;4934401;29;20107;-65
2022/04/27 07:04:43;;;;;;;21.92;12.07;;;;;;;;;;4930899;29;20047;-65
2022/04/27 07:07:12;;;;;;;14.65;11.52;;;;;;;;;;4935075;29;20395;-65
2022/04/27 07:09:41;;;;;;;19.02;11.73;;;;;;;;;;4926595;29;20058;-65
2022/04/27 07:12:12;;;;;;;15.10;12.73;;;;;;;;;;4933098;29;20056;-65
2022/04/27 07:14:40;;;;;;;15.95;13.02;;;;;;;;;;4935025;29;20127;-65
2022/04/27 07:17:08;;;;;;;20.05;12.90;;;;;;;;;;4935227;29;20468;-65
2022/04/27 07:19:36;;;;;;;19.67;12.77;;;;;;;;;;4935551;29;20054;-65
2022/04/27 07:22:06;;;;;;;16.38;12.60;;;;;;;;;;4935132;29;20106;-65
2022/04/27 07:24:37;;;;;;;20.50;13.48;;;;;;;;;;4935664;29;20055;-65
2022/04/27 07:27:05;;;;;;;23.20;13.95;;;;;;;;;;4917499;29;20075;-65
2022/04/27 07:29:34;;;;;;;18.15;13.55;;;;;;;;;;4917385;29;20110;-65
2022/04/27 07:32:02;;;;;;;19.52;13.65;;;;;;;;;;4926752;29;20058;-62
2022/04/27 07:34:30;;;;;;;23.35;15.10;;;;;;;;;;4932842;29;20075;-62
2022/04/27 07:36:58;;;;;;;17.30;12.00;;;;;;;;;;4929979;29;20183;-62
2022/04/27 07:39:25;;;;;;;18.95;13.27;;;;;;;;;;4932373;29;20056;-62
2022/04/27 07:41:54;;;;;;;16.58;13.57;;;;;;;;;;4936504;29;20401;-62
2022/04/27 07:44:21;;;;;;;19.15;14.50;;;;;;;;;;4921861;29;20150;-62
2022/04/27 07:46:50;;;;;;;21.60;14.88;;;;;;;;;;4919483;29;20048;-62
2022/04/27 07:49:20;;;;;;;15.68;12.68;;;;;;;;;;4932735;29;20130;-62
2022/04/27 07:51:51;;;;;;;17.48;12.55;;;;;;;;;;4935329;29;20048;-62
2022/04/27 07:54:19;;;;;;;15.40;13.43;;;;;;;;;;4943090;29;20415;-63
2022/04/27 07:56:48;;;;;;;16.50;13.95;;;;;;;;;;4933788;29;20114;-63
2022/04/27 07:59:18;;;;;;;16.60;14.30;;;;;;;;;;4926527;29;20064;-62
2022/04/27 08:01:47;;;;;;;21.58;13.93;;;;;;;;;;4920207;29;20055;-63
2022/04/27 08:04:16;;;;;;;15.65;13.43;;;;;;;;;;4925757;29;20393;-62
2022/04/27 08:06:46;;;;;;;17.00;14.25;;;;;;;;;;4930479;29;20054;-62
2022/04/27 08:09:14;;;;;;;17.40;14.27;;;;;;;;;;4934037;29;20048;-65
2022/04/27 08:11:42;;;;;;;18.70;13.65;;;;;;;;;;4936556;29;20047;-65
2022/04/27 08:14:12;;;;;;;16.00;14.15;;;;;;;;;;4938043;29;20052;-63
2022/04/27 08:16:40;;;;;;;22.45;15.93;;;;;;;;;;4922619;29;20056;-63
2022/04/27 08:19:09;;;;;;;18.63;15.18;;;;;;;;;;4921240;29;20056;-63
2022/04/27 08:21:37;;;;;;;22.30;14.63;;;;;;;;;;4928272;29;20055;-63
2022/04/27 08:24:10;;;;;;;16.77;14.55;;;;;;;;;;4924825;29;20055;-63
2022/04/27 08:26:39;;;;;;;16.42;14.13;;;;;;;;;;4935233;29;20067;-63
2022/04/27 08:29:07;;;;;;;18.33;14.68;;;;;;;;;;4935630;29;20471;-63
2022/04/27 08:31:34;;;;;;;16.95;15.15;;;;;;;;;;4936113;29;20052;-63
2022/04/27 08:34:02;;;;;;;20.27;17.08;;;;;;;;;;4931156;29;20055;-63
2022/04/27 08:36:30;;;;;;;22.15;17.00;;;;;;;;;;4934689;29;20070;-64
2022/04/27 08:38:58;;;;;;;20.33;16.33;;;;;;;;;;4935905;29;20043;-64
2022/04/27 08:41:28;;;;;;;21.35;18.92;;;;;;;;;;4935529;29;20074;-64
2022/04/27 08:43:57;;;;;;;22.45;18.42;;;;;;;;;;4935558;29;20055;-64
2022/04/27 08:46:28;;;;;;;24.92;20.05;;;;;;;;;;4935366;29;20613;-64
2022/04/27 08:48:57;;;;;;;25.75;19.98;;;;;;;;;;4931409;29;20099;-64
2022/04/27 08:51:29;;;;;;;19.17;17.23;;;;;;;;;;4930233;29;20512;-63
2022/04/27 08:53:59;;;;;;;20.75;18.25;;;;;;;;;;4933800;29;20063;-63
2022/04/27 08:56:27;;;;;;;21.35;17.48;;;;;;;;;;4933898;29;20580;-63
2022/04/27 08:58:58;;;;;;;21.45;17.80;;;;;;;;;;4933043;29;20086;-63
2022/04/27 09:01:26;;;;;;;21.20;19.05;;;;;;;;;;4933756;29;20062;-63
2022/04/27 09:04:11;;;;;;;23.50;21.05;;;;;;;;;;4932072;29;20051;-63
2022/04/27 09:06:40;;;;;;;20.52;18.33;;;;;;;;;;4933150;29;20493;-63
2022/04/27 09:09:13;;;;;;;20.27;18.30;;;;;;;;;;4931596;29;20048;-63
2022/04/27 09:11:41;;;;;;;21.00;18.70;;;;;;;;;;4926266;29;20050;-63
2022/04/27 09:14:09;;;;;;;19.83;17.73;;;;;;;;;;4923318;29;20047;-63
2022/04/27 09:22:44;;;;;;;22.35;19.83;;;;;;;;;;4925411;29;20467;-63
2022/04/27 09:25:12;;;;;;;25.48;19.10;;;;;;;;;;4934759;29;20622;-63
2022/04/27 09:27:42;;;;;;;22.42;20.20;;;;;;;;;;4935412;29;20054;-63
2022/04/27 09:30:14;;;;;;;23.08;19.67;;;;;;;;;;4935185;29;20048;-64
2022/04/27 09:32:52;;;;;;;22.70;20.45;;;;;;;;;;4926558;29;20058;-65
2022/04/27 09:35:32;;;;;;;21.73;19.13;;;;;;;;;;4917340;29;20103;-65
2022/04/27 09:38:38;;;;;;;23.70;21.27;;;;;;;;;;4918214;29;20131;-64
2022/04/27 09:41:08;;;;;;;22.73;20.13;;;;;;;;;;4934777;29;20111;-64
2022/04/27 09:43:51;;;;;;;23.77;21.35;;;;;;;;;;4934771;29;20075;-64
2022/04/27 09:46:27;;;;;;;24.35;21.83;;;;;;;;;;4924546;29;20052;-64
2022/04/27 09:49:04;;;;;;;28.10;21.58;;;;;;;;;;4926975;29;20040;-64
2022/04/27 09:51:53;;;;;;;23.02;20.83;;;;;;;;;;4916824;29;20129;-64
2022/04/27 09:54:29;;;;;;;30.35;22.65;;;;;;;;;;4921868;29;20054;-63
2022/04/27 09:56:59;;;;;;;24.38;21.92;;;;;;;;;;4921750;29;20082;-66
2022/04/27 09:59:30;;;;;;;23.73;20.95;;;;;;;;;;4933056;29;20052;-63
2022/04/27 10:02:05;;;;;;;25.92;23.40;;;;;;;;;;4931238;29;20047;-63
2022/04/27 10:04:34;;;;;;;25.85;21.58;;;;;;;;;;4934601;29;20046;-65
2022/04/27 10:07:04;;;;;;;23.80;21.35;;;;;;;;;;4935835;29;20411;-64
2022/04/27 10:09:32;;;;;;;24.65;22.35;;;;;;;;;;4933982;29;20174;-64
2022/04/27 10:12:14;;;;;;;25.67;22.85;;;;;;;;;;4935037;29;20084;-63
2022/04/27 10:14:43;;;;;;;25.38;22.77;;;;;;;;;;4935650;29;20047;-64
2022/04/27 10:17:12;;;;;;;22.60;18.27;;;;;;;;;;4935503;29;20071;-64
2022/04/27 10:19:46;;;;;;;24.10;21.70;;;;;;;;;;4935087;29;20456;-63
2022/04/27 10:22:27;;;;;;;27.27;24.42;;;;;;;;;;4931059;29;20123;-63
2022/04/27 10:24:56;;;;;;;27.40;24.67;;;;;;;;;;4919789;29;20052;-63
2022/04/27 10:27:42;;;;;;;24.65;22.15;;;;;;;;;;4930170;29;20080;-64
2022/04/27 10:30:13;;;;;;;25.73;23.17;;;;;;;;;;4924705;29;20104;-63
2022/04/27 10:32:48;;;;;;;24.85;22.38;;;;;;;;;;4930112;29;20579;-63
2022/04/27 10:35:17;;;;;;;26.52;24.00;;;;;;;;;;4935055;29;20047;-62
2022/04/27 10:37:54;;;;;;;28.42;23.13;;;;;;;;;;4934930;29;20514;-63
2022/04/27 10:40:39;;;;;;;27.60;24.50;;;;;;;;;;4934915;29;20051;-64
2022/04/27 10:43:06;;;;;;;29.45;26.33;;;;;;;;;;4932978;29;20143;-63
2022/04/27 10:46:00;;;;;;;28.40;25.50;;;;;;;;;;4932177;29;20070;-64
2022/04/27 10:48:50;;;;;;;26.48;23.80;;;;;;;;;;4935170;29;20131;-64
2022/04/27 10:51:20;;;;;;;25.98;23.52;;;;;;;;;;4930009;29;20052;-64
2022/04/27 10:53:50;;;;;;;25.92;23.10;;;;;;;;;;4931143;29;20054;-64
2022/04/27 10:56:37;;;;;;;25.17;22.77;;;;;;;;;;4930265;29;20035;-64
2022/04/27 10:59:44;;;;;;;23.65;21.33;;;;;;;;;;4930002;29;20118;-64
2022/04/27 11:02:35;;;;;;;30.63;23.63;;;;;;;;;;4931571;29;20044;-63
2022/04/27 11:05:13;;;;;;;22.27;19.85;;;;;;;;;;4932347;29;20401;-65
2022/04/27 11:07:54;;;;;;;21.25;19.17;;;;;;;;;;4932146;29;20047;-65
2022/04/27 11:10:25;;;;;;;22.95;18.33;;;;;;;;;;4932543;29;20106;-65
2022/04/27 11:12:57;;;;;;;20.48;18.35;;;;;;;;;;4923772;29;20048;-64
2022/04/27 11:15:27;;;;;;;18.63;16.73;;;;;;;;;;4919272;29;20115;-64
2022/04/27 11:18:04;;;;;;;19.60;17.80;;;;;;;;;;4925896;29;20063;-64
2022/04/27 11:20:43;;;;;;;23.42;18.45;;;;;;;;;;4923952;29;20476;-65
2022/04/27 11:23:21;;;;;;;18.48;16.73;;;;;;;;;;4922323;29;20055;-65
2022/04/27 11:25:52;;;;;;;18.85;17.05;;;;;;;;;;4919579;29;20083;-65
2022/04/27 11:28:21;;;;;;;19.50;17.40;;;;;;;;;;4918771;29;20063;-65
2022/04/27 11:30:50;;;;;;;19.42;17.40;;;;;;;;;;4921500;29;20056;-65
2022/04/27 11:33:18;;;;;;;18.83;16.83;;;;;;;;;;4925481;29;20492;-64
2022/04/27 11:35:50;;;;;;;18.70;16.02;;;;;;;;;;4919110;29;20076;-63
2022/04/27 11:38:21;;;;;;;18.33;16.48;;;;;;;;;;4925278;29;20052;-64
2022/04/27 11:40:51;;;;;;;18.10;16.20;;;;;;;;;;4935311;29;20652;-63
2022/04/27 11:43:32;;;;;;;15.40;13.48;;;;;;;;;;4925384;29;20048;-65
2022/04/27 11:46:00;;;;;;;17.25;15.32;;;;;;;;;;4927175;29;20414;-65
2022/04/27 11:48:30;;;;;;;15.50;13.82;;;;;;;;;;4936070;29;20055;-65
2022/04/27 11:51:00;;;;;;;14.73;13.25;;;;;;;;;;4933664;29;20160;-64
2022/04/27 11:53:28;;;;;;;17.52;13.10;;;;;;;;;;4934756;29;20404;-65
2022/04/27 11:55:58;;;;;;;13.75;12.38;;;;;;;;;;4933239;29;20072;-65
2022/04/27 11:58:28;;;;;;;13.77;12.48;;;;;;;;;;4933796;29;20051;-65
2022/04/27 12:01:19;;;;;;;13.48;11.65;;;;;;;;;;4934131;29;20119;-65
2022/04/27 12:03:49;;;;;;;13.50;11.73;;;;;;;;;;4933683;29;20055;-65
2022/04/27 12:06:26;;;;;;;12.25;11.05;;;;;;;;;;4932069;29;20062;-65
2022/04/27 12:09:02;;;;;;;12.35;11.05;;;;;;;;;;4928346;29;20044;-65
2022/04/27 12:11:31;;;;;;;11.77;10.23;;;;;;;;;;4933252;29;20081;-65
2022/04/27 12:13:58;;;;;;;11.82;10.73;;;;;;;;;;4928156;29;20052;-66
2022/04/27 12:16:31;;;;;;;12.45;11.32;;;;;;;;;;4928554;29;20056;-66
2022/04/27 12:19:02;;;;;;;15.82;10.90;;;;;;;;;;4934664;29;20048;-67
2022/04/27 12:21:30;;;;;;;12.88;10.30;;;;;;;;;;4932128;29;20044;-65
2022/04/27 12:24:00;;;;;;;13.75;12.40;;;;;;;;;;4933248;29;20515;-66
2022/04/27 12:26:39;;;;;;;10.60;9.50;;;;;;;;;;4934088;29;20047;-65
2022/04/27 12:29:09;;;;;;;11.60;9.23;;;;;;;;;;4931470;29;20043;-66
2022/04/27 12:31:37;;;;;;;11.75;10.02;;;;;;;;;;4931408;29;20052;-65
2022/04/27 12:37:29;;;;;;;10.98;9.50;;;;;;;;;;4932517;29;20075;-67
2022/04/27 12:39:41;;;;;;;13.80;9.88;;;;;;;;;;4931352;29;20044;-65
2022/04/27 12:42:10;;;;;;;10.93;9.23;;;;;;;;;;4921054;29;20063;-65
2022/04/27 12:44:42;;;;;;;12.48;9.38;;;;;;;;;;4922026;29;20078;-65
2022/04/27 12:47:12;;;;;;;10.65;8.30;;;;;;;;;;4923576;29;20054;-65
2022/04/27 12:49:43;;;;;;;12.32;8.57;;;;;;;;;;4926359;29;20051;-68
2022/04/27 12:52:23;;;;;;;9.88;8.18;;;;;;;;;;4922584;29;20544;-68
2022/04/27 12:55:23;;;;;;;9.23;7.63;;;;;;;;;;4925676;29;20056;-66
2022/04/27 12:57:57;;;;;;;9.40;7.55;;;;;;;;;;4930056;29;20422;-64
2022/04/27 13:00:46;;;;;;;17.55;8.02;;;;;;;;;;4934004;29;20079;-65
2022/04/27 13:03:14;;;;;;;8.65;7.75;;;;;;;;;;4932186;29;20058;-65
2022/04/27 13:05:44;;;;;;;11.45;7.55;;;;;;;;;;4927673;29;20056;-65
2022/04/27 13:08:13;;;;;;;9.05;7.43;;;;;;;;;;4942695;29;20440;-65
2022/04/27 13:13:29;;;;;;;6.80;6.10;;;;;;;;;;4933897;29;20400;-66
2022/04/27 13:15:57;;;;;;;7.45;6.70;;;;;;;;;;4935145;29;20094;-66
2022/04/27 13:18:26;;;;;;;10.73;7.53;;;;;;;;;;4929416;29;20040;-65
2022/04/27 13:20:55;;;;;;;8.52;7.30;;;;;;;;;;4919366;29;20472;-65
2022/04/27 13:23:24;;;;;;;7.43;6.72;;;;;;;;;;4933385;29;20054;-61
2022/04/27 13:25:52;;;;;;;8.30;6.90;;;;;;;;;;4933126;29;20055;-61
2022/04/27 13:28:22;;;;;;;6.82;6.22;;;;;;;;;;4927441;29;20074;-62
2022/04/27 13:30:50;;;;;;;11.13;6.70;;;;;;;;;;4915660;29;20044;-61
2022/04/27 13:33:20;;;;;;;7.07;5.90;;;;;;;;;;4927208;29;20543;-62
2022/04/27 13:35:49;;;;;;;10.40;6.68;;;;;;;;;;4934517;29;20059;-62
2022/04/27 13:38:19;;;;;;;7.75;6.20;;;;;;;;;;4935799;29;20058;-62
2022/04/27 13:40:46;;;;;;;10.23;7.82;;;;;;;;;;4933418;29;20476;-62
2022/04/27 13:43:14;;;;;;;9.40;6.57;;;;;;;;;;4934338;29;20126;-63
2022/04/27 13:45:44;;;;;;;9.43;5.80;;;;;;;;;;4933861;29;20142;-63
2022/04/27 13:48:13;;;;;;;8.07;5.28;;;;;;;;;;4933079;29;20052;-63
2022/04/27 13:50:42;;;;;;;10.75;6.85;;;;;;;;;;4916335;29;20534;-63
2022/04/27 13:53:12;;;;;;;7.57;5.63;;;;;;;;;;4916770;29;20076;-63
2022/04/27 13:55:42;;;;;;;6.07;5.25;;;;;;;;;;4917166;29;20063;-63
2022/04/27 13:58:10;;;;;;;10.32;6.15;;;;;;;;;;4916815;29;20130;-63
2022/04/27 14:00:58;;;;;;;6.43;4.50;;;;;;;;;;4929166;29;20047;-63
2022/04/27 14:03:26;;;;;;;7.50;5.40;;;;;;;;;;4926787;29;20048;-64
2022/04/27 14:05:55;;;;;;;7.00;5.25;;;;;;;;;;4920976;29;20051;-62
2022/04/27 14:08:23;;;;;;;10.82;5.85;;;;;;;;;;4920269;29;20127;-62
2022/04/27 14:10:53;;;;;;;6.50;5.75;;;;;;;;;;4920223;29;20131;-62
2022/04/27 14:13:26;;;;;;;7.22;5.75;;;;;;;;;;4937439;29;20544;-63
2022/04/27 14:18:39;;;;;;;7.07;4.00;;;;;;;;;;4935525;29;20044;-63
2022/04/27 14:21:07;;;;;;;8.00;6.20;;;;;;;;;;4928540;29;20047;-63
2022/04/27 14:23:35;;;;;;;7.15;4.78;;;;;;;;;;4938530;29;20526;-63
2022/04/27 14:26:04;;;;;;;7.63;3.88;;;;;;;;;;4938065;29;20051;-62
2022/04/27 14:28:33;;;;;;;5.55;4.03;;;;;;;;;;4938297;29;20048;-62
2022/04/27 14:31:01;;;;;;;5.95;4.00;;;;;;;;;;4922320;29;20047;-62
2022/04/27 14:33:30;;;;;;;8.70;5.55;;;;;;;;;;4921656;29;20052;-63
2022/04/27 14:35:58;;;;;;;5.45;4.18;;;;;;;;;;4918073;29;20576;-63
2022/04/27 14:38:26;;;;;;;9.48;5.45;;;;;;;;;;4936737;29;20063;-62
2022/04/27 14:40:54;;;;;;;8.07;4.28;;;;;;;;;;4936077;29;20063;-63
2022/04/27 14:43:22;;;;;;;5.50;3.58;;;;;;;;;;4937492;29;20058;-63
2022/04/27 14:45:52;;;;;;;6.97;4.07;;;;;;;;;;4937455;29;20060;-63
2022/04/27 14:48:20;;;;;;;5.53;3.22;;;;;;;;;;4933079;29;20522;-63
2022/04/27 14:50:50;;;;;;;7.43;4.70;;;;;;;;;;4919934;29;20074;-62
2022/04/27 14:53:18;;;;;;;4.53;3.53;;;;;;;;;;4919695;29;20135;-63
2022/04/27 14:55:47;;;;;;;5.32;4.35;;;;;;;;;;4919939;29;20101;-62
2022/04/27 14:58:15;;;;;;;4.80;3.40;;;;;;;;;;4920712;29;20064;-62
2022/04/27 15:00:43;;;;;;;5.70;3.33;;;;;;;;;;4927620;29;20052;-62
2022/04/27 15:03:11;;;;;;;4.35;3.50;;;;;;;;;;4929643;29;20471;-62
2022/04/27 15:05:40;;;;;;;3.85;3.00;;;;;;;;;;4925170;29;20115;-62
2022/04/27 15:08:09;;;;;;;4.35;3.15;;;;;;;;;;4930770;29;20110;-62
2022/04/27 15:10:39;;;;;;;5.43;3.85;;;;;;;;;;4933038;29;20115;-62
2022/04/27 15:13:08;;;;;;;7.13;4.07;;;;;;;;;;4924402;29;20508;-61
2022/04/27 15:15:37;;;;;;;4.60;2.90;;;;;;;;;;4930404;29;20051;-61
2022/04/27 15:18:05;;;;;;;4.68;3.00;;;;;;;;;;4922744;29;20052;-61
2022/04/27 15:23:21;;;;;;;5.28;2.58;;;;;;;;;;4919288;29;20048;-62
2022/04/27 15:25:49;;;;;;;4.53;3.17;;;;;;;;;;4923921;29;20047;-61
2022/04/27 15:28:18;;;;;;;4.18;3.03;;;;;;;;;;4923259;29;20056;-62
2022/04/27 15:30:47;;;;;;;5.63;3.63;;;;;;;;;;4922845;29;20627;-62
2022/04/27 15:33:15;;;;;;;5.40;3.70;;;;;;;;;;4921434;29;20052;-63
2022/04/27 15:35:43;;;;;;;7.15;2.78;;;;;;;;;;4921471;29;20052;-63